Time;durP1;ratioP1;P1;durP2;ratioP2;P2;SDS_P1;SDS_P2;PMS_P1;PMS_P2;Temp;Humidity;BMP_temperature;BMP_pressure;BME280_temperature;BME280_humidity;BME280_pressure;Samples;Min_cycle;Max_cycle;Signal;HPM_P1;HPM_P2
2024/03/19 00:02:02;;;;;;;11.98;2.30;;;11.30;99.90;;;;;;5127803;28;20158;-45
2024/03/19 00:04:27;;;;;;;8.93;2.47;;;11.30;99.90;;;;;;5127485;28;20019;-44
2024/03/19 00:06:53;;;;;;;13.35;2.80;;;11.30;99.90;;;;;;5127291;28;20035;-48
2024/03/19 00:09:18;;;;;;;10.00;2.00;;;11.30;99.90;;;;;;5109757;28;20249;-44
2024/03/19 00:11:44;;;;;;;13.50;3.13;;;11.30;99.90;;;;;;5127656;28;20039;-44
2024/03/19 00:14:10;;;;;;;8.27;1.90;;;11.30;99.90;;;;;;5127594;28;20070;-44
2024/03/19 00:16:35;;;;;;;10.75;2.45;;;11.30;99.90;;;;;;5127288;28;20032;-44
2024/03/19 00:19:02;;;;;;;14.15;3.03;;;11.20;99.90;;;;;;5127291;28;20031;-45
2024/03/19 00:21:28;;;;;;;9.65;2.15;;;11.30;99.90;;;;;;5127376;28;20099;-48
2024/03/19 00:23:53;;;;;;;6.95;1.88;;;11.20;99.90;;;;;;5127367;28;20027;-46
2024/03/19 00:26:19;;;;;;;7.85;2.30;;;11.30;99.90;;;;;;5109036;28;20050;-46
2024/03/19 00:28:44;;;;;;;9.20;2.42;;;11.20;99.90;;;;;;5127163;28;20035;-46
2024/03/19 00:31:10;;;;;;;12.30;2.22;;;11.30;99.90;;;;;;5127152;28;20055;-45
2024/03/19 00:33:36;;;;;;;6.93;1.80;;;11.20;99.90;;;;;;5127187;28;20023;-45
2024/03/19 00:36:10;;;;;;;5.72;1.50;;;11.20;99.90;;;;;;5127167;28;20024;-47
2024/03/19 00:38:36;;;;;;;3.88;1.30;;;11.20;99.90;;;;;;5126856;28;20039;-45
2024/03/19 00:41:02;;;;;;;6.60;1.25;;;11.20;99.90;;;;;;5127019;28;20067;-45
2024/03/19 00:43:27;;;;;;;4.68;1.52;;;11.20;99.90;;;;;;5108841;28;20035;-44
2024/03/19 00:45:54;;;;;;;6.97;1.88;;;11.20;99.90;;;;;;5126755;28;20032;-45
2024/03/19 00:48:20;;;;;;;6.35;1.48;;;11.30;99.90;;;;;;5125968;28;20113;-47
2024/03/19 00:50:46;;;;;;;7.60;1.52;;;11.30;99.90;;;;;;5126705;28;20028;-46
2024/03/19 00:53:11;;;;;;;6.05;1.70;;;11.30;99.90;;;;;;5126585;28;20023;-44
2024/03/19 00:55:38;;;;;;;5.57;1.40;;;11.30;99.90;;;;;;5126600;28;20177;-44
2024/03/19 00:58:03;;;;;;;4.60;1.38;;;11.30;99.90;;;;;;5126165;28;20015;-46
2024/03/19 01:00:29;;;;;;;7.47;1.40;;;11.30;99.90;;;;;;5108667;28;20043;-47
2024/03/19 01:02:55;;;;;;;9.15;2.45;;;11.30;99.90;;;;;;5126307;28;20066;-45
2024/03/19 01:05:21;;;;;;;8.27;1.38;;;11.30;99.90;;;;;;5126451;28;20015;-44
2024/03/19 01:07:46;;;;;;;3.63;1.00;;;11.30;99.90;;;;;;5126385;28;20036;-44
2024/03/19 01:10:13;;;;;;;6.93;1.65;;;11.30;99.90;;;;;;5126065;28;20023;-47
2024/03/19 01:12:39;;;;;;;3.15;1.20;;;11.30;99.90;;;;;;5125991;28;20094;-45
2024/03/19 01:15:07;;;;;;;6.55;2.03;;;11.40;99.90;;;;;;5125893;28;20028;-46
2024/03/19 01:17:35;;;;;;;13.35;2.55;;;11.40;99.90;;;;;;5126397;28;20044;-44
2024/03/19 01:20:12;;;;;;;10.52;2.45;;;11.40;99.90;;;;;;5108749;28;20100;-43
2024/03/19 01:22:38;;;;;;;19.45;3.00;;;11.60;99.90;;;;;;5110119;28;20080;-46
2024/03/19 01:25:06;;;;;;;12.02;2.53;;;11.60;99.90;;;;;;5107984;28;20071;-45
2024/03/19 01:27:33;;;;;;;18.48;3.35;;;11.60;99.90;;;;;;5108244;28;20065;-44
2024/03/19 01:29:58;;;;;;;19.77;3.15;;;11.60;99.90;;;;;;5126224;28;20015;-43
2024/03/19 01:32:24;;;;;;;26.27;3.63;;;11.70;99.90;;;;;;5107977;28;20023;-46
2024/03/19 01:34:50;;;;;;;26.00;4.10;;;11.70;99.90;;;;;;5125991;28;20042;-44
2024/03/19 01:37:15;;;;;;;24.27;4.63;;;11.70;99.90;;;;;;5108159;28;20047;-43
2024/03/19 01:39:41;;;;;;;15.43;3.25;;;11.70;99.90;;;;;;5126256;28;20062;-43
2024/03/19 01:42:07;;;;;;;29.27;5.60;;;11.70;99.90;;;;;;5126279;28;20145;-43
2024/03/19 01:44:32;;;;;;;25.13;4.35;;;11.60;99.90;;;;;;5125778;28;20015;-44
2024/03/19 01:46:58;;;;;;;28.38;4.82;;;11.70;99.90;;;;;;5125931;28;20090;-44
2024/03/19 01:49:24;;;;;;;21.85;3.70;;;11.70;99.90;;;;;;5125718;28;20023;-43
2024/03/19 01:51:50;;;;;;;24.13;4.07;;;11.70;99.90;;;;;;5126198;28;20163;-44
2024/03/19 01:54:16;;;;;;;15.57;3.15;;;11.70;99.90;;;;;;5126077;28;20037;-44
2024/03/19 01:56:41;;;;;;;14.52;3.15;;;11.70;99.90;;;;;;5126073;28;20024;-44
2024/03/19 01:59:08;;;;;;;25.00;3.90;;;11.70;99.90;;;;;;5126211;28;20217;-44
2024/03/19 02:01:34;;;;;;;23.90;3.78;;;11.70;99.90;;;;;;5130141;28;20204;-45
2024/03/19 02:03:59;;;;;;;21.83;4.30;;;11.70;99.90;;;;;;5130132;28;20076;-44
2024/03/19 02:06:25;;;;;;;20.63;3.10;;;11.80;99.90;;;;;;5112211;28;20177;-44
2024/03/19 02:09:04;;;;;;;18.83;3.40;;;11.80;99.90;;;;;;5111911;28;20019;-44
2024/03/19 02:11:30;;;;;;;34.15;4.20;;;11.70;99.90;;;;;;5129896;28;20019;-46
2024/03/19 02:13:56;;;;;;;26.63;4.55;;;11.80;99.90;;;;;;5129864;28;20041;-46
2024/03/19 02:16:22;;;;;;;24.02;4.40;;;11.70;99.90;;;;;;5129715;28;20072;-47
2024/03/19 02:18:58;;;;;;;19.17;3.85;;;11.80;99.90;;;;;;5129374;28;20027;-43
2024/03/19 02:21:25;;;;;;;23.92;3.75;;;11.80;99.90;;;;;;5129710;28;20043;-44
2024/03/19 02:24:00;;;;;;;25.75;4.20;;;11.80;99.90;;;;;;5129724;28;20024;-44
2024/03/19 02:26:27;;;;;;;20.17;3.92;;;11.70;99.90;;;;;;5129322;28;20300;-44
2024/03/19 02:28:53;;;;;;;24.40;3.47;;;11.70;99.90;;;;;;5094489;28;20039;-44
2024/03/19 02:31:18;;;;;;;22.30;3.70;;;11.70;99.90;;;;;;5129504;28;20031;-45
2024/03/19 02:33:45;;;;;;;21.27;4.05;;;11.80;99.90;;;;;;5129604;28;20028;-46
2024/03/19 02:36:11;;;;;;;25.48;3.40;;;11.80;99.90;;;;;;5129577;28;20257;-45
2024/03/19 02:38:36;;;;;;;29.10;4.60;;;11.80;99.90;;;;;;5111420;28;20203;-44
2024/03/19 02:41:03;;;;;;;20.50;3.22;;;11.80;99.90;;;;;;5129353;28;20057;-45
2024/03/19 02:43:29;;;;;;;15.88;3.72;;;11.80;99.90;;;;;;5129236;28;20211;-45
2024/03/19 02:45:55;;;;;;;20.65;3.15;;;11.80;99.90;;;;;;5129292;28;20023;-46
2024/03/19 02:48:21;;;;;;;18.75;3.38;;;11.80;99.90;;;;;;5128746;28;20100;-45
2024/03/19 02:50:47;;;;;;;16.80;3.20;;;11.80;99.90;;;;;;5129033;28;20273;-48
2024/03/19 02:53:12;;;;;;;19.38;3.38;;;11.80;99.90;;;;;;5128743;28;20045;-45
2024/03/19 02:55:38;;;;;;;16.48;3.63;;;11.80;99.90;;;;;;5129201;28;20032;-46
2024/03/19 02:58:04;;;;;;;13.43;2.38;;;11.80;99.90;;;;;;5129117;28;20024;-45
2024/03/19 03:00:29;;;;;;;16.10;2.53;;;11.80;99.90;;;;;;5128748;28;20061;-43
2024/03/19 03:02:55;;;;;;;16.38;2.83;;;11.80;99.90;;;;;;5128942;28;20154;-45
2024/03/19 03:05:21;;;;;;;25.35;3.30;;;11.80;99.90;;;;;;5110778;28;20289;-44
2024/03/19 03:07:46;;;;;;;27.63;4.43;;;11.80;99.90;;;;;;5128821;28;20023;-44
2024/03/19 03:10:12;;;;;;;31.60;5.07;;;11.70;99.90;;;;;;5128516;28;20277;-44
2024/03/19 03:12:38;;;;;;;17.55;4.20;;;11.70;99.90;;;;;;5128112;28;20027;-46
2024/03/19 03:15:04;;;;;;;44.60;5.82;;;11.70;99.90;;;;;;5128597;28;20019;-43
2024/03/19 03:17:31;;;;;;;36.88;4.72;;;11.70;99.90;;;;;;5128673;28;20099;-43
2024/03/19 03:19:58;;;;;;;35.05;5.07;;;11.70;99.90;;;;;;5128661;28;20023;-44
2024/03/19 03:22:24;;;;;;;39.00;5.38;;;11.60;99.90;;;;;;5110665;28;20065;-43
2024/03/19 03:24:50;;;;;;;30.55;4.82;;;11.60;99.90;;;;;;5127984;28;20309;-44
2024/03/19 03:27:15;;;;;;;26.30;4.78;;;11.60;99.90;;;;;;5110435;28;20062;-43
2024/03/19 03:29:41;;;;;;;34.40;5.10;;;11.50;99.90;;;;;;5128511;28;20023;-44
2024/03/19 03:32:07;;;;;;;24.95;3.95;;;11.60;99.90;;;;;;5128430;28;20098;-44
2024/03/19 03:34:35;;;;;;;31.50;5.38;;;11.60;99.90;;;;;;5093435;28;20076;-46
2024/03/19 03:37:01;;;;;;;34.63;5.00;;;11.50;99.90;;;;;;5128159;28;20165;-45
2024/03/19 03:39:27;;;;;;;26.10;5.10;;;11.50;99.90;;;;;;5128228;28;20034;-44
2024/03/19 03:41:52;;;;;;;38.95;5.05;;;11.50;99.90;;;;;;5128185;28;20031;-44
2024/03/19 03:44:19;;;;;;;32.17;5.38;;;11.50;99.90;;;;;;5127881;28;20069;-45
2024/03/19 03:46:44;;;;;;;36.67;5.07;;;11.50;99.90;;;;;;5127865;28;20031;-46
2024/03/19 03:49:10;;;;;;;33.92;4.85;;;11.50;99.90;;;;;;5109976;28;20023;-46
2024/03/19 03:51:36;;;;;;;31.48;4.55;;;11.50;99.90;;;;;;5128049;28;20030;-44
2024/03/19 03:54:02;;;;;;;29.73;4.45;;;11.50;99.90;;;;;;5128034;28;20276;-44
2024/03/19 03:56:28;;;;;;;33.10;5.10;;;11.50;99.90;;;;;;5127870;28;20020;-45
2024/03/19 03:58:54;;;;;;;33.88;6.13;;;11.50;99.90;;;;;;5127672;28;20038;-44
2024/03/19 04:01:20;;;;;;;29.13;4.93;;;11.40;99.90;;;;;;5092920;28;20184;-44
2024/03/19 04:03:46;;;;;;;36.38;5.85;;;11.40;99.90;;;;;;5127842;28;20080;-44
2024/03/19 04:06:12;;;;;;;34.20;4.63;;;11.40;99.90;;;;;;5109694;28;20193;-45
2024/03/19 04:08:37;;;;;;;35.65;5.45;;;11.40;99.90;;;;;;5127759;28;20046;-44
2024/03/19 04:11:03;;;;;;;29.83;5.38;;;11.40;99.90;;;;;;5127208;28;20084;-44
2024/03/19 04:13:29;;;;;;;43.05;6.47;;;11.30;99.90;;;;;;5127571;28;20042;-44
2024/03/19 04:15:56;;;;;;;53.30;7.25;;;11.30;99.90;;;;;;5109518;28;20054;-45
2024/03/19 04:18:22;;;;;;;45.28;5.88;;;11.30;99.90;;;;;;5127208;28;20020;-44
2024/03/19 04:20:50;;;;;;;38.92;5.80;;;11.30;99.90;;;;;;5127268;28;20094;-44
2024/03/19 04:23:16;;;;;;;46.58;6.40;;;11.30;99.90;;;;;;5108622;28;20133;-44
2024/03/19 04:25:42;;;;;;;41.28;5.38;;;11.30;99.90;;;;;;5126897;28;20051;-46
2024/03/19 04:28:07;;;;;;;41.03;4.97;;;11.30;99.90;;;;;;5127270;28;20058;-44
2024/03/19 04:30:33;;;;;;;38.17;4.90;;;11.20;99.90;;;;;;5127227;28;20030;-44
2024/03/19 04:32:59;;;;;;;49.53;6.75;;;11.20;99.90;;;;;;5127070;28;20025;-45
2024/03/19 04:35:24;;;;;;;57.45;6.32;;;11.20;99.90;;;;;;5127093;28;20042;-44
2024/03/19 04:37:50;;;;;;;45.00;6.70;;;11.10;99.90;;;;;;5127115;28;20080;-44
2024/03/19 04:40:16;;;;;;;61.53;8.18;;;11.10;99.90;;;;;;5108893;28;20091;-44
2024/03/19 04:42:42;;;;;;;55.22;6.82;;;11.20;99.90;;;;;;5109033;28;20035;-44
2024/03/19 04:45:09;;;;;;;42.40;6.53;;;11.10;99.90;;;;;;5126882;28;20031;-45
2024/03/19 04:47:34;;;;;;;51.97;6.50;;;11.10;99.90;;;;;;5126905;28;20050;-43
2024/03/19 04:50:00;;;;;;;46.08;6.22;;;11.10;99.90;;;;;;5126936;28;20022;-44
2024/03/19 04:52:26;;;;;;;40.83;5.75;;;11.10;99.90;;;;;;5126592;28;20046;-43
2024/03/19 04:54:51;;;;;;;51.65;7.05;;;11.10;99.90;;;;;;5126760;28;20023;-44
2024/03/19 04:57:18;;;;;;;52.60;6.88;;;11.10;99.90;;;;;;5126716;28;20288;-43
2024/03/19 04:59:44;;;;;;;48.38;6.63;;;11.10;99.90;;;;;;5126369;28;20034;-43
2024/03/19 05:02:10;;;;;;;45.67;6.13;;;11.10;99.90;;;;;;5108856;28;20027;-44
2024/03/19 05:04:36;;;;;;;37.60;6.30;;;11.00;99.90;;;;;;5108972;28;20296;-44
2024/03/19 05:07:02;;;;;;;48.85;6.40;;;10.90;99.90;;;;;;5126520;28;20054;-43
2024/03/19 05:09:28;;;;;;;43.33;6.57;;;10.90;99.90;;;;;;5126780;28;20326;-45
2024/03/19 05:11:54;;;;;;;54.05;6.55;;;10.90;99.90;;;;;;5128251;28;20070;-44
2024/03/19 05:14:20;;;;;;;54.08;6.18;;;10.90;99.90;;;;;;5128412;28;20027;-44
2024/03/19 05:16:46;;;;;;;48.75;5.88;;;10.90;99.90;;;;;;5128164;28;20085;-43
2024/03/19 05:19:11;;;;;;;42.53;6.50;;;10.90;99.90;;;;;;5127972;28;20264;-43
2024/03/19 05:21:37;;;;;;;48.03;7.40;;;10.80;99.90;;;;;;5127908;28;20023;-44
2024/03/19 05:24:03;;;;;;;49.58;7.82;;;10.80;99.90;;;;;;5127672;28;20173;-43
2024/03/19 05:26:29;;;;;;;51.30;6.47;;;10.80;99.90;;;;;;5126577;28;20043;-44
2024/03/19 05:28:54;;;;;;;53.92;6.97;;;10.80;99.90;;;;;;5126249;28;20073;-43
2024/03/19 05:31:24;;;;;;;47.45;8.00;;;10.80;99.90;;;;;;5126004;28;20213;-43
2024/03/19 05:33:53;;;;;;;42.00;7.05;;;10.80;99.90;;;;;;5127090;28;20022;-43
2024/03/19 05:36:19;;;;;;;38.90;5.55;;;10.70;99.90;;;;;;5133158;28;20028;-44
2024/03/19 05:38:44;;;;;;;51.60;6.50;;;10.70;99.90;;;;;;5133090;28;20037;-43
2024/03/19 05:41:12;;;;;;;42.25;5.88;;;10.60;99.90;;;;;;5133035;28;20284;-43
2024/03/19 05:43:38;;;;;;;50.05;6.20;;;10.60;99.90;;;;;;5133205;28;20024;-43
2024/03/19 05:46:04;;;;;;;51.53;7.75;;;10.50;99.90;;;;;;5132636;28;20164;-43
2024/03/19 05:48:31;;;;;;;44.45;5.70;;;10.50;99.90;;;;;;5132627;28;20069;-43
2024/03/19 05:50:58;;;;;;;54.75;6.97;;;10.40;99.90;;;;;;5132701;28;20032;-43
2024/03/19 05:53:23;;;;;;;34.70;6.22;;;10.40;99.90;;;;;;5132979;28;20020;-43
2024/03/19 05:55:49;;;;;;;41.20;6.90;;;10.30;99.90;;;;;;5133055;28;20034;-43
2024/03/19 05:58:15;;;;;;;43.45;6.70;;;10.30;99.90;;;;;;5114764;28;20059;-44
2024/03/19 06:00:40;;;;;;;42.38;5.78;;;10.20;99.90;;;;;;5132640;28;20027;-43
2024/03/19 06:03:07;;;;;;;46.78;7.75;;;10.20;99.90;;;;;;5132541;28;20024;-43
2024/03/19 06:05:33;;;;;;;47.17;7.13;;;10.20;99.90;;;;;;5132855;28;20023;-44
2024/03/19 06:07:59;;;;;;;44.55;6.35;;;10.10;99.90;;;;;;5132827;28;20056;-42
2024/03/19 06:10:24;;;;;;;40.75;7.30;;;10.10;99.90;;;;;;5132535;28;20027;-43
2024/03/19 06:12:50;;;;;;;41.92;6.45;;;10.10;99.90;;;;;;5132782;28;20146;-43
2024/03/19 06:15:15;;;;;;;46.58;8.20;;;10.00;99.90;;;;;;5132760;28;20019;-45
2024/03/19 06:17:41;;;;;;;56.33;8.85;;;10.00;99.90;;;;;;5114513;28;20042;-44
2024/03/19 06:20:14;;;;;;;47.65;7.28;;;10.00;99.90;;;;;;5133028;28;20242;-44
2024/03/19 06:22:42;;;;;;;52.10;7.85;;;10.00;99.90;;;;;;5132932;28;20097;-43
2024/03/19 06:25:09;;;;;;;54.53;6.97;;;10.00;99.90;;;;;;5132104;28;20043;-43
2024/03/19 06:27:34;;;;;;;51.67;6.50;;;10.00;99.90;;;;;;5132521;28;20042;-43
2024/03/19 06:30:00;;;;;;;53.45;9.00;;;9.90;99.90;;;;;;5132604;28;20023;-44
2024/03/19 06:32:26;;;;;;;54.53;8.43;;;9.90;99.90;;;;;;5132327;28;20019;-44
2024/03/19 06:34:53;;;;;;;52.05;7.05;;;10.00;99.90;;;;;;5132310;28;20024;-44
2024/03/19 06:37:20;;;;;;;45.92;7.68;;;10.00;99.90;;;;;;5132384;28;20083;-43
2024/03/19 06:39:45;;;;;;;46.95;7.78;;;10.00;99.90;;;;;;5132758;28;20095;-43
2024/03/19 06:42:11;;;;;;;49.95;7.85;;;10.00;99.90;;;;;;5132658;28;20027;-43
2024/03/19 06:44:36;;;;;;;49.28;7.07;;;10.00;99.90;;;;;;5114084;28;20185;-44
2024/03/19 06:47:02;;;;;;;42.20;6.15;;;10.10;99.90;;;;;;5128330;28;20033;-43
2024/03/19 06:49:28;;;;;;;40.63;7.32;;;10.10;99.90;;;;;;5128986;28;20270;-43
2024/03/19 06:51:54;;;;;;;46.42;5.97;;;10.20;99.90;;;;;;5128428;28;20019;-43
2024/03/19 06:54:20;;;;;;;47.78;9.50;;;10.20;99.90;;;;;;5128872;28;20051;-43
2024/03/19 06:56:45;;;;;;;40.08;6.22;;;10.30;99.90;;;;;;5128881;28;20042;-44
2024/03/19 06:59:13;;;;;;;44.50;6.72;;;10.40;99.90;;;;;;5128865;28;20012;-43
2024/03/19 07:01:38;;;;;;;41.63;6.45;;;10.40;99.90;;;;;;5129036;28;20198;-43
2024/03/19 07:04:05;;;;;;;45.40;7.97;;;10.40;99.90;;;;;;5128896;28;20095;-43
2024/03/19 07:06:32;;;;;;;33.60;5.82;;;10.40;99.90;;;;;;5129117;28;20015;-47
2024/03/19 07:08:58;;;;;;;45.38;6.43;;;10.40;99.90;;;;;;5129204;28;20027;-48
2024/03/19 07:11:24;;;;;;;39.03;6.68;;;10.40;99.90;;;;;;5111421;28;20215;-47
2024/03/19 07:13:49;;;;;;;36.80;5.78;;;10.40;99.90;;;;;;5111333;28;20053;-47
2024/03/19 07:16:15;;;;;;;43.03;5.93;;;10.50;99.90;;;;;;5131967;28;20031;-45
2024/03/19 07:18:42;;;;;;;36.05;6.45;;;10.50;99.90;;;;;;5132931;28;20284;-43
2024/03/19 07:21:08;;;;;;;29.65;4.97;;;10.60;99.90;;;;;;5131167;28;20104;-43
2024/03/19 07:23:35;;;;;;;27.45;4.32;;;10.70;99.90;;;;;;5115077;28;20040;-46
2024/03/19 07:26:00;;;;;;;25.08;3.90;;;10.70;99.90;;;;;;5131372;28;20036;-44
2024/03/19 07:28:26;;;;;;;21.35;3.60;;;10.70;99.90;;;;;;5133058;28;20150;-47
2024/03/19 07:30:52;;;;;;;28.73;3.40;;;10.80;99.90;;;;;;5133184;28;20023;-44
2024/03/19 07:33:17;;;;;;;14.70;3.00;;;10.90;99.90;;;;;;5110582;28;20039;-44
2024/03/19 07:35:43;;;;;;;12.80;2.85;;;10.90;99.90;;;;;;5128196;28;20028;-43
2024/03/19 07:38:09;;;;;;;17.13;3.22;;;10.90;99.90;;;;;;5127496;28;20185;-43
2024/03/19 07:40:35;;;;;;;16.80;2.25;;;10.80;99.90;;;;;;5127945;28;20076;-43
2024/03/19 07:43:00;;;;;;;14.43;2.80;;;11.10;99.90;;;;;;5109594;28;20080;-43
2024/03/19 07:45:26;;;;;;;10.82;2.35;;;11.60;99.90;;;;;;5127864;28;20023;-43
2024/03/19 07:47:52;;;;;;;13.30;2.50;;;12.00;99.90;;;;;;5127967;28;20032;-43
2024/03/19 07:50:23;;;;;;;11.82;1.98;;;12.40;99.90;;;;;;5127521;28;20346;-43
2024/03/19 07:52:49;;;;;;;8.93;2.13;;;12.80;99.90;;;;;;5127559;28;20174;-43
2024/03/19 07:55:14;;;;;;;12.95;2.58;;;13.10;99.90;;;;;;5127872;28;20020;-43
2024/03/19 07:57:40;;;;;;;8.07;1.77;;;13.30;99.90;;;;;;5127656;28;20039;-44
2024/03/19 08:00:14;;;;;;;11.73;1.92;;;13.60;99.90;;;;;;5127736;28;20031;-43
2024/03/19 08:02:40;;;;;;;6.95;1.77;;;13.80;99.90;;;;;;5127681;28;20278;-43
2024/03/19 08:05:07;;;;;;;9.20;1.60;;;13.50;99.90;;;;;;5127303;28;20090;-43
2024/03/19 08:07:35;;;;;;;5.80;1.50;;;13.60;99.90;;;;;;5127412;28;20072;-44
2024/03/19 08:10:00;;;;;;;4.10;1.48;;;13.90;99.90;;;;;;5092602;28;20185;-44
2024/03/19 08:12:26;;;;;;;6.18;1.55;;;14.20;99.90;;;;;;5127192;28;20020;-44
2024/03/19 08:14:52;;;;;;;7.18;1.50;;;14.80;99.90;;;;;;5127246;28;20019;-44
2024/03/19 08:17:18;;;;;;;7.18;1.65;;;15.10;99.90;;;;;;5127195;28;20031;-45
2024/03/19 08:19:43;;;;;;;5.97;1.42;;;15.20;99.90;;;;;;5127228;28;20237;-44
2024/03/19 08:22:09;;;;;;;6.78;1.60;;;15.30;99.90;;;;;;5127127;28;20050;-44
2024/03/19 08:24:35;;;;;;;9.05;1.42;;;15.60;99.90;;;;;;5126702;28;20031;-43
2024/03/19 08:27:01;;;;;;;12.05;2.08;;;15.80;99.90;;;;;;5126659;28;20036;-44
2024/03/19 08:29:27;;;;;;;7.57;1.38;;;15.90;99.90;;;;;;5126946;28;20019;-43
2024/03/19 08:31:52;;;;;;;8.27;1.67;;;16.00;99.90;;;;;;5126451;28;20024;-47
2024/03/19 08:34:18;;;;;;;4.30;1.55;;;15.90;99.90;;;;;;5126432;28;20020;-45
2024/03/19 08:36:44;;;;;;;6.97;1.85;;;16.00;99.90;;;;;;5126581;28;20314;-45
2024/03/19 08:39:10;;;;;;;6.85;1.70;;;16.30;99.90;;;;;;5126423;28;20158;-47
2024/03/19 08:41:36;;;;;;;8.18;1.52;;;16.50;99.90;;;;;;5126180;28;20062;-47
2024/03/19 08:44:02;;;;;;;5.43;1.40;;;16.30;99.90;;;;;;5108265;28;20031;-46
2024/03/19 08:46:27;;;;;;;4.07;1.63;;;16.50;99.90;;;;;;5125968;28;20024;-48
2024/03/19 08:48:53;;;;;;;6.13;1.70;;;16.80;99.90;;;;;;5126112;28;20184;-47
2024/03/19 08:51:19;;;;;;;7.55;1.60;;;17.40;99.90;;;;;;5125799;28;20022;-48
2024/03/19 08:53:47;;;;;;;4.03;1.33;;;17.60;99.90;;;;;;5126181;28;20271;-48
2024/03/19 08:56:13;;;;;;;5.90;1.70;;;17.80;99.90;;;;;;5125777;28;20030;-46
2024/03/19 08:58:39;;;;;;;7.70;2.10;;;17.40;99.90;;;;;;5125789;28;20023;-48
2024/03/19 09:01:05;;;;;;;7.72;1.90;;;17.30;99.90;;;;;;5125982;28;20027;-48
2024/03/19 09:03:31;;;;;;;8.85;1.67;;;17.50;99.90;;;;;;5126168;28;20028;-47
2024/03/19 09:05:57;;;;;;;9.02;2.20;;;17.90;99.90;;;;;;5126006;28;20035;-49
2024/03/19 09:08:23;;;;;;;8.38;2.47;;;17.90;99.90;;;;;;5125649;28;20024;-51
2024/03/19 09:10:52;;;;;;;7.55;2.30;;;17.90;99.90;;;;;;5125689;28;20038;-45
2024/03/19 09:13:18;;;;;;;5.35;1.73;;;18.40;99.90;;;;;;5125709;28;20016;-48
2024/03/19 09:15:44;;;;;;;6.03;2.15;;;17.90;99.90;;;;;;5107960;28;20074;-46
2024/03/19 09:18:10;;;;;;;5.38;1.75;;;18.00;99.90;;;;;;5125903;28;20031;-47
2024/03/19 09:20:35;;;;;;;8.73;1.83;;;17.90;99.90;;;;;;5107783;28;20034;-48
2024/03/19 09:23:01;;;;;;;6.55;1.88;;;18.10;99.90;;;;;;5125502;28;20027;-47
2024/03/19 09:25:27;;;;;;;10.82;2.42;;;17.90;99.90;;;;;;5107770;28;20135;-46
2024/03/19 09:27:53;;;;;;;7.53;2.00;;;16.50;99.90;;;;;;5125752;28;20054;-46
2024/03/19 09:30:19;;;;;;;7.60;1.70;;;15.70;99.90;;;;;;5125319;28;20051;-49
2024/03/19 09:32:45;;;;;;;8.93;1.60;;;15.70;99.90;;;;;;5125670;28;20056;-48
2024/03/19 09:35:11;;;;;;;11.23;2.25;;;15.50;99.90;;;;;;5107771;28;20079;-48
2024/03/19 09:37:46;;;;;;;6.18;1.95;;;15.30;99.90;;;;;;5107905;28;20288;-46
2024/03/19 09:40:12;;;;;;;6.30;2.05;;;14.70;99.90;;;;;;5125566;28;20031;-46
2024/03/19 09:42:38;;;;;;;9.77;3.00;;;14.40;99.90;;;;;;5125730;28;20024;-48
2024/03/19 09:45:09;;;;;;;10.25;2.17;;;15.10;99.90;;;;;;5125249;28;20289;-47
2024/03/19 09:47:35;;;;;;;9.82;2.13;;;16.40;99.90;;;;;;5125476;28;20181;-49
2024/03/19 09:50:00;;;;;;;8.70;2.25;;;17.10;99.90;;;;;;5090506;28;20030;-49
2024/03/19 09:52:28;;;;;;;6.85;2.10;;;17.30;99.90;;;;;;5125366;28;20024;-49
2024/03/19 09:54:55;;;;;;;8.13;2.10;;;17.50;99.90;;;;;;5107932;28;20206;-47
2024/03/19 09:57:21;;;;;;;9.63;2.40;;;17.80;99.90;;;;;;5125436;28;20047;-49
2024/03/19 09:59:47;;;;;;;6.95;1.70;;;18.20;99.90;;;;;;5125597;28;20053;-49
2024/03/19 10:02:20;;;;;;;6.53;1.58;;;18.60;99.90;;;;;;5107637;28;20086;-49
2024/03/19 10:04:47;;;;;;;7.85;1.58;;;18.80;99.90;;;;;;5107282;28;20094;-49
2024/03/19 10:07:17;;;;;;;8.18;1.77;;;18.90;99.90;;;;;;5125436;28;20032;-46
2024/03/19 10:09:46;;;;;;;;;;;19.10;99.90;;;;;;5126040;28;20023;-47
2024/03/19 10:12:12;;;;;;;4.63;1.60;;;19.40;99.90;;;;;;5125175;28;19979;-49
2024/03/19 10:14:38;;;;;;;5.40;1.92;;;19.20;99.90;;;;;;5125074;28;20020;-46
2024/03/19 10:17:04;;;;;;;6.03;2.10;;;19.00;99.90;;;;;;5125107;28;20189;-48
2024/03/19 10:19:30;;;;;;;5.65;1.85;;;19.50;99.90;;;;;;5125465;28;20032;-46
2024/03/19 10:21:56;;;;;;;9.18;1.60;;;19.70;99.90;;;;;;5127027;28;20015;-48
2024/03/19 10:24:22;;;;;;;6.90;1.83;;;19.60;99.90;;;;;;5129123;28;20059;-49
2024/03/19 10:26:49;;;;;;;7.88;2.55;;;19.10;99.90;;;;;;5128820;28;20114;-49
2024/03/19 10:29:15;;;;;;;7.05;1.77;;;19.20;99.90;;;;;;5129178;28;20328;-49
2024/03/19 10:31:42;;;;;;;5.38;1.40;;;19.80;99.90;;;;;;5111023;28;20043;-49
2024/03/19 10:34:21;;;;;;;7.78;2.03;;;20.70;99.90;;;;;;5128911;28;20090;-48
2024/03/19 10:36:48;;;;;;;9.23;2.20;;;20.00;99.90;;;;;;5111356;28;20039;-45
2024/03/19 10:39:15;;;;;;;10.68;2.60;;;19.90;99.90;;;;;;5128734;28;20035;-48
2024/03/19 10:41:42;;;;;;;9.93;2.80;;;20.10;99.90;;;;;;5110703;28;20029;-47
2024/03/19 10:44:08;;;;;;;9.48;2.50;;;20.40;99.90;;;;;;5128700;28;20032;-46
2024/03/19 10:46:34;;;;;;;11.20;2.83;;;20.70;99.90;;;;;;5093632;28;20028;-49
2024/03/19 10:49:00;;;;;;;8.02;2.67;;;19.90;99.90;;;;;;5092859;28;20050;-44
2024/03/19 10:51:25;;;;;;;7.40;2.30;;;19.70;99.90;;;;;;5128443;28;20295;-48
2024/03/19 10:53:52;;;;;;;9.75;2.45;;;19.80;99.90;;;;;;5093692;28;20052;-44
2024/03/19 10:56:18;;;;;;;16.58;3.05;;;19.50;99.90;;;;;;5093738;28;20023;-46
2024/03/19 10:58:46;;;;;;;10.57;2.50;;;19.60;99.90;;;;;;5128462;28;20177;-47
2024/03/19 11:01:15;;;;;;;10.02;2.60;;;20.00;99.90;;;;;;5128483;28;20288;-49
2024/03/19 11:03:41;;;;;;;10.88;3.22;;;19.80;99.90;;;;;;5128712;28;20125;-46
2024/03/19 11:06:19;;;;;;;9.48;2.90;;;20.40;99.90;;;;;;5110166;28;20028;-47
2024/03/19 11:08:53;;;;;;;11.45;3.20;;;20.30;99.90;;;;;;5111878;28;20304;-50
2024/03/19 11:11:19;;;;;;;12.38;2.90;;;19.80;99.90;;;;;;5110702;28;20027;-47
2024/03/19 11:13:51;;;;;;;9.25;2.75;;;18.80;99.90;;;;;;5128013;28;20086;-46
2024/03/19 11:16:19;;;;;;;9.20;2.63;;;18.90;99.90;;;;;;5127910;28;20024;-49
2024/03/19 11:18:48;;;;;;;10.85;3.10;;;18.60;99.90;;;;;;5127746;28;20034;-48
2024/03/19 11:21:18;;;;;;;6.95;2.10;;;19.00;99.90;;;;;;5127243;28;20043;-47
2024/03/19 11:23:44;;;;;;;6.82;2.15;;;20.10;99.90;;;;;;5128043;28;20223;-48
2024/03/19 11:26:10;;;;;;;9.25;2.58;;;21.00;99.90;;;;;;5092087;28;20116;-48
2024/03/19 11:28:36;;;;;;;10.63;2.50;;;21.10;99.90;;;;;;5086924;28;20116;-48
2024/03/19 11:31:02;;;;;;;11.75;2.72;;;21.40;99.90;;;;;;5086788;28;20019;-50
2024/03/19 11:33:28;;;;;;;8.45;2.30;;;20.50;99.90;;;;;;5086472;28;20025;-48
2024/03/19 11:35:54;;;;;;;13.07;4.72;;;20.20;99.90;;;;;;5069310;28;20054;-49
2024/03/19 11:38:19;;;;;;;35.88;22.65;;;20.40;99.90;;;;;;5086504;28;20138;-49
2024/03/19 11:40:46;;;;;;;36.33;21.65;;;21.00;99.90;;;;;;5068917;28;20036;-49
2024/03/19 11:43:16;;;;;;;15.50;7.25;;;20.70;99.90;;;;;;5069181;28;20094;-49
2024/03/19 11:45:45;;;;;;;21.35;11.52;;;21.80;99.90;;;;;;5086869;28;20111;-49
2024/03/19 11:48:15;;;;;;;11.75;4.82;;;21.60;99.90;;;;;;5069401;28;20037;-47
2024/03/19 11:50:49;;;;;;;39.42;31.60;;;21.30;99.90;;;;;;5086708;28;20035;-48
2024/03/19 11:53:17;;;;;;;25.42;14.20;;;21.00;99.90;;;;;;5086338;28;20232;-47
2024/03/19 11:55:43;;;;;;;18.50;11.73;;;21.40;99.90;;;;;;5086496;28;20262;-49
2024/03/19 11:58:10;;;;;;;51.63;40.45;;;21.20;99.90;;;;;;5086755;28;20100;-49
2024/03/19 12:00:36;;;;;;;22.40;17.83;;;21.30;99.90;;;;;;5086432;28;20043;-48
2024/03/19 12:03:03;;;;;;;12.60;7.13;;;21.40;99.90;;;;;;5086287;28;20016;-46
2024/03/19 12:05:29;;;;;;;6.03;3.65;;;21.10;99.90;;;;;;5068494;28;20031;-47
2024/03/19 12:07:54;;;;;;;6.25;2.15;;;20.40;99.90;;;;;;5052008;28;20194;-49
2024/03/19 12:10:24;;;;;;;12.38;4.00;;;20.00;99.90;;;;;;5068263;28;20028;-47
2024/03/19 12:12:53;;;;;;;;;;;19.20;99.90;;;;;;5086553;28;20066;-50
2024/03/19 12:15:23;;;;;;;9.90;4.20;;;19.30;99.90;;;;;;5085881;28;19908;-49
2024/03/19 12:17:49;;;;;;;9.25;3.05;;;19.40;99.90;;;;;;5086098;28;20052;-49
2024/03/19 12:20:15;;;;;;;11.38;3.90;;;19.20;99.90;;;;;;5068471;28;20097;-49
2024/03/19 12:22:51;;;;;;;9.20;3.42;;;19.40;99.90;;;;;;5085650;28;20232;-46
2024/03/19 12:25:18;;;;;;;12.30;3.80;;;19.60;99.90;;;;;;5074164;28;20044;-46
2024/03/19 12:27:44;;;;;;;9.63;3.78;;;19.70;99.90;;;;;;5088108;28;20066;-49
2024/03/19 12:30:13;;;;;;;15.43;6.68;;;20.20;99.90;;;;;;5106092;28;20020;-49
2024/03/19 12:32:59;;;;;;;11.15;2.92;;;20.50;99.90;;;;;;5087903;28;20024;-46
2024/03/19 12:35:26;;;;;;;8.68;3.58;;;20.60;99.90;;;;;;5106158;28;20281;-49
2024/03/19 12:37:52;;;;;;;6.82;2.60;;;21.20;99.90;;;;;;5105502;28;20030;-49